Time;durP1;ratioP1;P1;durP2;ratioP2;P2;SDS_P1;SDS_P2;PMS_P1;PMS_P2;Temp;Humidity;BMP_temperature;BMP_pressure;BME280_temperature;BME280_humidity;BME280_pressure;Samples;Min_cycle;Max_cycle;Signal;HPM_P1;HPM_P2
2022/07/13 00:00:40;;;;;;;;;;;25.20;38.90;;;;;;1534910;76;741;-66
2022/07/13 00:02:42;;;;;;;;;;;25.20;39.00;;;;;;1518003;76;762;-66
2022/07/13 00:04:44;;;;;;;;;;;25.20;39.00;;;;;;1531195;76;791;-66
2022/07/13 00:06:46;;;;;;;;;;;25.20;39.00;;;;;;1534803;76;812;-66
2022/07/13 00:08:48;;;;;;;;;;;25.10;39.10;;;;;;1536046;76;1144;-67
2022/07/13 00:10:50;;;;;;;;;;;25.20;39.10;;;;;;1526320;77;806;-66
2022/07/13 00:12:52;;;;;;;;;;;25.20;39.10;;;;;;1532239;76;791;-66
2022/07/13 00:14:54;;;;;;;;;;;25.20;39.10;;;;;;1529987;76;740;-66
2022/07/13 00:16:55;;;;;;;;;;;25.20;39.10;;;;;;1534866;76;806;-67
2022/07/13 00:18:58;;;;;;;;;;;25.30;39.10;;;;;;1533846;76;1925;-67
2022/07/13 00:21:00;;;;;;;;;;;25.20;39.10;;;;;;1532987;76;721;-67
2022/07/13 00:23:03;;;;;;;;;;;25.10;39.10;;;;;;1533557;76;791;-67
2022/07/13 00:25:05;;;;;;;;;;;25.20;39.10;;;;;;1527685;76;721;-67
2022/07/13 00:27:07;;;;;;;;;;;25.10;39.00;;;;;;1530876;76;747;-67
2022/07/13 00:29:09;;;;;;;;;;;25.20;39.10;;;;;;1533956;76;1186;-67
2022/07/13 00:31:11;;;;;;;;;;;25.10;38.90;;;;;;1533867;77;770;-67
2022/07/13 00:33:12;;;;;;;;;;;25.20;38.90;;;;;;1528906;76;772;-67
2022/07/13 00:35:14;;;;;;;;;;;25.20;38.90;;;;;;1522527;76;688;-67
2022/07/13 00:37:16;;;;;;;;;;;25.20;38.80;;;;;;1534348;76;794;-68
2022/07/13 00:39:18;;;;;;;;;;;25.20;38.60;;;;;;1531917;76;1948;-67
2022/07/13 00:41:20;;;;;;;;;;;25.20;38.60;;;;;;1531685;77;704;-68
2022/07/13 00:43:22;;;;;;;;;;;25.20;38.50;;;;;;1533113;76;838;-67
2022/07/13 00:45:24;;;;;;;;;;;25.20;38.60;;;;;;1531960;76;640;-66
2022/07/13 00:47:27;;;;;;;;;;;25.20;38.50;;;;;;1531329;77;1009;-67
2022/07/13 00:49:29;;;;;;;;;;;25.20;38.50;;;;;;1535745;76;1139;-68
2022/07/13 00:51:30;;;;;;;;;;;25.10;38.50;;;;;;1511367;77;825;-67
2022/07/13 00:53:34;;;;;;;;;;;25.20;38.40;;;;;;1533684;76;670;-66
2022/07/13 00:55:36;;;;;;;;;;;25.10;38.60;;;;;;1532408;76;1855;-66
2022/07/13 00:57:38;;;;;;;;;;;25.20;38.50;;;;;;1534777;76;698;-67
2022/07/13 00:59:40;;;;;;;;;;;25.20;38.80;;;;;;1543853;76;1964;-66
2022/07/13 01:01:42;;;;;;;;;;;25.20;38.70;;;;;;1533704;76;764;-67
2022/07/13 01:03:44;;;;;;;;;;;25.20;38.60;;;;;;1523271;76;788;-67
2022/07/13 01:05:46;;;;;;;;;;;25.20;38.60;;;;;;1530636;76;768;-67
2022/07/13 01:07:48;;;;;;;;;;;25.20;38.50;;;;;;1527577;76;793;-66
2022/07/13 01:09:50;;;;;;;;;;;25.10;38.50;;;;;;1533980;76;1141;-67
2022/07/13 01:11:52;;;;;;;;;;;25.20;38.40;;;;;;1532629;76;766;-67
2022/07/13 01:13:54;;;;;;;;;;;25.10;38.40;;;;;;1533935;76;762;-67
2022/07/13 01:15:55;;;;;;;;;;;25.10;38.40;;;;;;1522721;76;1552;-67
2022/07/13 01:17:57;;;;;;;;;;;25.20;38.40;;;;;;1531629;76;747;-67
2022/07/13 01:19:59;;;;;;;;;;;25.20;38.40;;;;;;1546793;71;2087;-65
2022/07/13 01:22:02;;;;;;;;;;;25.20;38.40;;;;;;1576095;73;727;-64
2022/07/13 01:24:04;;;;;;;;;;;25.20;38.40;;;;;;1576658;74;708;-64
2022/07/13 01:26:07;;;;;;;;;;;25.10;38.40;;;;;;1566033;74;720;-64
2022/07/13 01:28:09;;;;;;;;;;;25.10;38.40;;;;;;1570840;74;793;-65
2022/07/13 01:30:11;;;;;;;;;;;25.20;38.40;;;;;;1565958;74;1213;-66
2022/07/13 01:32:13;;;;;;;;;;;25.10;38.40;;;;;;1572062;74;691;-65
2022/07/13 01:34:16;;;;;;;;;;;25.20;38.40;;;;;;1568388;74;772;-67
2022/07/13 01:36:18;;;;;;;;;;;25.10;38.30;;;;;;1560935;74;732;-65
2022/07/13 01:38:19;;;;;;;;;;;25.20;38.40;;;;;;1573236;74;722;-66
2022/07/13 01:40:21;;;;;;;;;;;25.10;38.40;;;;;;1567241;75;1941;-67
2022/07/13 01:42:23;;;;;;;;;;;25.10;38.40;;;;;;1576440;74;729;-69
2022/07/13 01:44:25;;;;;;;;;;;25.10;38.50;;;;;;1574721;74;730;-65
2022/07/13 01:46:27;;;;;;;;;;;25.10;38.40;;;;;;1574196;74;700;-66
2022/07/13 01:48:29;;;;;;;;;;;25.10;38.50;;;;;;1567745;74;711;-65
2022/07/13 01:50:31;;;;;;;;;;;25.10;38.50;;;;;;1581858;74;1145;-66
2022/07/13 01:52:33;;;;;;;;;;;25.10;38.40;;;;;;1581967;74;746;-66
2022/07/13 01:54:35;;;;;;;;;;;25.10;38.40;;;;;;1565900;74;597;-66
2022/07/13 01:56:36;;;;;;;;;;;25.10;38.40;;;;;;1562238;74;738;-68
2022/07/13 01:58:39;;;;;;;;;;;25.10;38.40;;;;;;1582017;74;716;-66
2022/07/13 02:00:40;;;;;;;;;;;25.10;38.40;;;;;;1566271;74;1932;-65
2022/07/13 02:02:42;;;;;;;;;;;25.10;38.40;;;;;;1576876;74;733;-63
2022/07/13 02:04:44;;;;;;;;;;;25.10;38.40;;;;;;1566348;74;726;-64
2022/07/13 02:06:46;;;;;;;;;;;25.10;38.40;;;;;;1557589;74;711;-65
2022/07/13 02:08:48;;;;;;;;;;;25.10;38.40;;;;;;1578187;74;694;-65
2022/07/13 02:10:50;;;;;;;;;;;25.10;38.40;;;;;;1574572;74;1089;-65
2022/07/13 02:12:52;;;;;;;;;;;25.10;38.40;;;;;;1585152;74;1326;-66
2022/07/13 02:14:54;;;;;;;;;;;25.10;38.40;;;;;;1561001;74;805;-65
2022/07/13 02:16:56;;;;;;;;;;;25.10;38.50;;;;;;1575678;74;737;-64
2022/07/13 02:18:58;;;;;;;;;;;25.10;38.50;;;;;;1571625;74;846;-66
2022/07/13 02:20:59;;;;;;;;;;;25.10;38.40;;;;;;1580873;73;1951;-65
2022/07/13 02:23:01;;;;;;;;;;;25.10;38.30;;;;;;1599377;73;766;-65
2022/07/13 02:25:03;;;;;;;;;;;25.10;38.40;;;;;;1589143;73;685;-66
2022/07/13 02:27:05;;;;;;;;;;;25.10;38.40;;;;;;1587220;73;610;-66
2022/07/13 02:29:07;;;;;;;;;;;25.10;38.30;;;;;;1602312;73;722;-67
2022/07/13 02:31:09;;;;;;;;;;;25.10;38.40;;;;;;1597085;73;1159;-65
2022/07/13 02:33:11;;;;;;;;;;;25.10;38.30;;;;;;1599465;73;733;-65
2022/07/13 02:35:13;;;;;;;;;;;25.10;38.30;;;;;;1579545;73;715;-66
2022/07/13 02:37:15;;;;;;;;;;;25.10;38.20;;;;;;1584149;73;695;-69
2022/07/13 02:39:17;;;;;;;;;;;25.10;38.30;;;;;;1595308;73;1160;-64
2022/07/13 02:41:19;;;;;;;;;;;25.10;38.30;;;;;;1591918;73;1918;-65
2022/07/13 02:43:20;;;;;;;;;;;25.10;38.30;;;;;;1593312;73;848;-65
2022/07/13 02:45:22;;;;;;;;;;;25.10;38.30;;;;;;1589852;73;718;-67
2022/07/13 02:47:24;;;;;;;;;;;25.10;38.30;;;;;;1603568;73;727;-65
2022/07/13 02:49:26;;;;;;;;;;;25.10;38.40;;;;;;1602081;73;1158;-63
2022/07/13 02:51:28;;;;;;;;;;;25.10;38.20;;;;;;1602706;73;694;-66
2022/07/13 02:53:30;;;;;;;;;;;25.10;38.40;;;;;;1602051;73;709;-65
2022/07/13 02:55:32;;;;;;;;;;;25.10;38.40;;;;;;1595936;73;707;-65
2022/07/13 02:57:33;;;;;;;;;;;25.10;38.30;;;;;;1595332;73;725;-67
2022/07/13 02:59:36;;;;;;;;;;;25.10;38.40;;;;;;1589593;73;1930;-64
2022/07/13 03:01:38;;;;;;;;;;;25.10;38.30;;;;;;1594505;73;711;-65
2022/07/13 03:03:40;;;;;;;;;;;25.10;38.30;;;;;;1587050;73;754;-65
2022/07/13 03:05:42;;;;;;;;;;;25.10;38.40;;;;;;1595698;73;746;-63
2022/07/13 03:07:43;;;;;;;;;;;25.10;38.40;;;;;;1590250;73;1560;-64
2022/07/13 03:09:46;;;;;;;;;;;25.10;38.40;;;;;;1595732;72;1144;-65
2022/07/13 03:11:48;;;;;;;;;;;25.10;38.40;;;;;;1593684;73;676;-65
2022/07/13 03:13:49;;;;;;;;;;;25.10;38.40;;;;;;1591623;73;704;-64
2022/07/13 03:15:51;;;;;;;;;;;25.10;38.40;;;;;;1594245;73;709;-65
2022/07/13 03:17:53;;;;;;;;;;;25.20;38.40;;;;;;1594031;73;736;-65
2022/07/13 03:19:55;;;;;;;;;;;25.10;38.40;;;;;;1602779;73;1944;-67
2022/07/13 03:21:57;;;;;;;;;;;25.10;38.50;;;;;;1582865;74;781;-65
2022/07/13 03:23:59;;;;;;;;;;;25.10;38.50;;;;;;1583636;73;718;-64
2022/07/13 03:26:01;;;;;;;;;;;25.20;38.50;;;;;;1595659;73;736;-64
2022/07/13 03:28:03;;;;;;;;;;;25.10;38.60;;;;;;1578182;73;724;-65
2022/07/13 03:30:05;;;;;;;;;;;25.10;38.60;;;;;;1584196;74;1153;-67
2022/07/13 03:32:07;;;;;;;;;;;25.10;38.60;;;;;;1578903;73;679;-66
2022/07/13 03:34:09;;;;;;;;;;;25.10;38.60;;;;;;1578758;73;782;-66
2022/07/13 03:36:10;;;;;;;;;;;25.20;38.60;;;;;;1571419;72;667;-67
2022/07/13 03:38:12;;;;;;;;;;;25.10;38.60;;;;;;1586114;73;796;-65
2022/07/13 03:40:14;;;;;;;;;;;25.10;38.70;;;;;;1549766;75;1967;-65
2022/07/13 03:42:16;;;;;;;;;;;25.10;38.80;;;;;;1550492;75;768;-65
2022/07/13 03:44:18;;;;;;;;;;;25.10;38.60;;;;;;1548889;75;790;-64
2022/07/13 03:46:20;;;;;;;;;;;25.10;38.70;;;;;;1553478;75;637;-66
2022/07/13 03:48:22;;;;;;;;;;;25.20;38.60;;;;;;1546237;76;704;-65
2022/07/13 03:50:24;;;;;;;;;;;25.10;38.60;;;;;;1542974;76;1208;-65
2022/07/13 03:52:26;;;;;;;;;;;25.10;38.70;;;;;;1539273;76;721;-66
2022/07/13 03:54:27;;;;;;;;;;;25.10;38.70;;;;;;1537761;77;827;-64
2022/07/13 03:56:30;;;;;;;;;;;25.10;38.70;;;;;;1554904;75;772;-64
2022/07/13 03:58:31;;;;;;;;;;;25.10;38.70;;;;;;1536523;76;784;-65
2022/07/13 04:00:33;;;;;;;;;;;25.10;38.70;;;;;;1543280;76;1951;-65
2022/07/13 04:02:35;;;;;;;;;;;25.10;38.70;;;;;;1542645;75;707;-65
2022/07/13 04:04:37;;;;;;;;;;;25.10;38.70;;;;;;1535368;75;1463;-65
2022/07/13 04:06:39;;;;;;;;;;;25.10;38.70;;;;;;1544889;75;795;-66
2022/07/13 04:08:41;;;;;;;;;;;25.10;38.90;;;;;;1538037;75;802;-65
2022/07/13 04:10:43;;;;;;;;;;;25.10;38.80;;;;;;1528080;75;1154;-64
2022/07/13 04:12:45;;;;;;;;;;;25.10;38.70;;;;;;1535934;75;718;-66
2022/07/13 04:14:48;;;;;;;;;;;25.10;38.70;;;;;;1536203;75;770;-66
2022/07/13 04:16:50;;;;;;;;;;;25.10;38.60;;;;;;1545786;75;1070;-67
2022/07/13 04:18:51;;;;;;;;;;;25.00;38.50;;;;;;1544061;75;683;-66
2022/07/13 04:20:53;;;;;;;;;;;25.10;38.50;;;;;;1554192;75;1944;-66
2022/07/13 04:22:55;;;;;;;;;;;25.10;38.40;;;;;;1540570;75;768;-65
2022/07/13 04:24:57;;;;;;;;;;;25.00;38.40;;;;;;1540722;75;724;-68
2022/07/13 04:26:59;;;;;;;;;;;25.00;38.40;;;;;;1538017;75;730;-64
2022/07/13 04:29:01;;;;;;;;;;;25.00;38.40;;;;;;1530273;75;714;-65
2022/07/13 04:31:03;;;;;;;;;;;25.00;38.40;;;;;;1536976;76;1136;-66
2022/07/13 04:33:05;;;;;;;;;;;25.00;38.30;;;;;;1530339;76;780;-66
2022/07/13 04:35:07;;;;;;;;;;;25.00;38.30;;;;;;1524099;75;788;-65
2022/07/13 04:37:09;;;;;;;;;;;25.00;38.30;;;;;;1535603;75;798;-64
2022/07/13 04:39:10;;;;;;;;;;;25.00;38.40;;;;;;1549332;75;771;-63
2022/07/13 04:41:13;;;;;;;;;;;25.00;38.40;;;;;;1535813;76;1945;-62
2022/07/13 04:43:15;;;;;;;;;;;25.00;38.40;;;;;;1534435;75;680;-61
2022/07/13 04:45:18;;;;;;;;;;;25.00;38.30;;;;;;1539574;76;770;-62
2022/07/13 04:47:20;;;;;;;;;;;25.00;38.40;;;;;;1541038;75;641;-61
2022/07/13 04:49:22;;;;;;;;;;;25.00;38.40;;;;;;1537294;75;1082;-62
2022/07/13 04:51:25;;;;;;;;;;;25.00;38.40;;;;;;1544027;76;671;-62
2022/07/13 04:53:26;;;;;;;;;;;25.00;38.20;;;;;;1547295;75;775;-61
2022/07/13 04:55:28;;;;;;;;;;;25.00;38.10;;;;;;1543146;76;729;-60
2022/07/13 04:57:30;;;;;;;;;;;25.00;38.10;;;;;;1536387;76;724;-63
2022/07/13 04:59:32;;;;;;;;;;;25.00;38.10;;;;;;1542834;75;1131;-62
2022/07/13 05:01:34;;;;;;;;;;;25.00;38.00;;;;;;1536945;76;1919;-63
2022/07/13 05:03:36;;;;;;;;;;;25.00;38.10;;;;;;1545186;75;717;-64
2022/07/13 05:05:38;;;;;;;;;;;25.00;38.00;;;;;;1540138;75;595;-63
2022/07/13 05:07:40;;;;;;;;;;;25.00;38.00;;;;;;1545394;75;749;-63
2022/07/13 05:09:42;;;;;;;;;;;25.00;38.10;;;;;;1552671;74;1133;-64
2022/07/13 05:11:44;;;;;;;;;;;25.00;38.10;;;;;;1542919;75;790;-62
2022/07/13 05:13:46;;;;;;;;;;;25.00;38.10;;;;;;1546265;76;716;-61
2022/07/13 05:15:48;;;;;;;;;;;25.00;38.30;;;;;;1542341;75;671;-62
2022/07/13 05:17:50;;;;;;;;;;;25.00;38.40;;;;;;1537368;76;701;-62
2022/07/13 05:19:52;;;;;;;;;;;25.10;38.30;;;;;;1553938;75;1159;-60
2022/07/13 05:21:54;;;;;;;;;;;25.00;38.20;;;;;;1554026;75;1939;-62
2022/07/13 05:23:55;;;;;;;;;;;25.00;38.30;;;;;;1537096;75;615;-64
2022/07/13 05:25:57;;;;;;;;;;;25.00;38.30;;;;;;1546299;75;794;-63
2022/07/13 05:27:59;;;;;;;;;;;24.90;38.30;;;;;;1550374;75;652;-65
2022/07/13 05:30:01;;;;;;;;;;;25.00;38.40;;;;;;1547685;75;1232;-63
2022/07/13 05:32:04;;;;;;;;;;;25.00;38.40;;;;;;1534278;76;775;-62
2022/07/13 05:34:06;;;;;;;;;;;24.90;38.40;;;;;;1552465;75;829;-66
2022/07/13 05:36:08;;;;;;;;;;;25.00;38.40;;;;;;1545711;75;822;-63
2022/07/13 05:38:09;;;;;;;;;;;24.90;38.50;;;;;;1543579;75;785;-63
2022/07/13 05:40:12;;;;;;;;;;;24.90;38.60;;;;;;1536760;75;1182;-64
2022/07/13 05:42:14;;;;;;;;;;;24.90;38.60;;;;;;1559741;75;1909;-66
2022/07/13 05:44:16;;;;;;;;;;;24.90;38.70;;;;;;1535346;75;680;-62
2022/07/13 05:46:18;;;;;;;;;;;24.90;38.80;;;;;;1561276;75;695;-63
2022/07/13 05:48:20;;;;;;;;;;;25.00;38.90;;;;;;1546333;76;757;-65
2022/07/13 05:50:22;;;;;;;;;;;25.00;38.90;;;;;;1529435;76;1152;-64
2022/07/13 05:52:24;;;;;;;;;;;24.90;39.00;;;;;;1549836;75;705;-64
2022/07/13 05:54:26;;;;;;;;;;;24.90;39.00;;;;;;1541154;75;791;-64
2022/07/13 05:56:28;;;;;;;;;;;24.90;39.10;;;;;;1532467;75;1503;-64
2022/07/13 05:58:31;;;;;;;;;;;24.90;39.20;;;;;;1549096;75;692;-65
2022/07/13 06:00:33;;;;;;;;;;;24.80;39.10;;;;;;1544720;75;1139;-64
2022/07/13 06:02:35;;;;;;;;;;;24.90;39.20;;;;;;1549435;75;1927;-64
2022/07/13 06:04:36;;;;;;;;;;;24.90;39.20;;;;;;1544146;76;1084;-65
2022/07/13 06:06:38;;;;;;;;;;;24.90;39.20;;;;;;1530530;75;741;-67
2022/07/13 06:08:40;;;;;;;;;;;24.90;39.20;;;;;;1540419;76;742;-63
2022/07/13 06:10:42;;;;;;;;;;;24.90;39.30;;;;;;1527851;75;1220;-63
2022/07/13 06:12:44;;;;;;;;;;;25.00;39.40;;;;;;1545202;75;797;-65
2022/07/13 06:14:46;;;;;;;;;;;25.00;39.60;;;;;;1533544;76;762;-65
2022/07/13 06:16:48;;;;;;;;;;;25.10;39.50;;;;;;1533310;76;684;-64
2022/07/13 06:18:49;;;;;;;;;;;25.20;39.30;;;;;;1530395;76;599;-65
2022/07/13 06:20:52;;;;;;;;;;;25.30;39.60;;;;;;1548245;75;1936;-66
2022/07/13 06:23:16;;;;;;;;;;;25.40;39.40;;;;;;1535897;75;815;-64
2022/07/13 06:24:57;;;;;;;;;;;25.40;39.20;;;;;;1534779;75;1170;-64
2022/07/13 06:26:59;;;;;;;;;;;25.40;39.10;;;;;;1537696;75;808;-64
2022/07/13 06:29:01;;;;;;;;;;;25.50;39.40;;;;;;1539042;75;667;-64
2022/07/13 06:31:03;;;;;;;;;;;25.50;39.00;;;;;;1544195;76;1105;-64
2022/07/13 06:33:04;;;;;;;;;;;25.60;38.70;;;;;;1545223;75;721;-66
2022/07/13 06:35:07;;;;;;;;;;;25.60;38.60;;;;;;1543478;75;740;-66
2022/07/13 06:37:09;;;;;;;;;;;25.70;38.60;;;;;;1544368;75;715;-65
2022/07/13 06:39:10;;;;;;;;;;;25.70;38.50;;;;;;1543322;75;739;-65
2022/07/13 06:41:12;;;;;;;;;;;25.70;38.50;;;;;;1544894;75;1952;-66
2022/07/13 06:43:14;;;;;;;;;;;25.80;38.50;;;;;;1534790;75;674;-65
2022/07/13 06:45:16;;;;;;;;;;;25.90;38.20;;;;;;1533316;75;711;-65
2022/07/13 06:47:18;;;;;;;;;;;25.90;38.10;;;;;;1543298;75;790;-64
2022/07/13 06:49:20;;;;;;;;;;;25.90;38.10;;;;;;1551922;75;1131;-64
2022/07/13 06:51:23;;;;;;;;;;;25.90;38.10;;;;;;1539478;75;761;-66
2022/07/13 06:53:24;;;;;;;;;;;25.90;38.00;;;;;;1550993;75;1550;-64
2022/07/13 06:55:26;;;;;;;;;;;26.00;38.50;;;;;;1543551;75;721;-68
2022/07/13 06:57:28;;;;;;;;;;;26.00;38.40;;;;;;1537412;76;805;-65
2022/07/13 06:59:30;;;;;;;;;;;26.00;38.40;;;;;;1539754;76;1139;-64
2022/07/13 07:01:32;;;;;;;;;;;26.10;38.30;;;;;;1551138;75;1959;-63
2022/07/13 07:03:34;;;;;;;;;;;26.10;38.00;;;;;;1535901;76;754;-65
2022/07/13 07:05:36;;;;;;;;;;;26.10;38.00;;;;;;1544895;75;713;-64
2022/07/13 07:07:39;;;;;;;;;;;26.20;37.90;;;;;;1539828;75;645;-65
2022/07/13 07:09:41;;;;;;;;;;;26.10;37.80;;;;;;1538476;74;1484;-64
2022/07/13 07:11:44;;;;;;;;;;;26.30;37.60;;;;;;1541325;76;693;-63
2022/07/13 07:13:46;;;;;;;;;;;26.30;37.50;;;;;;1543293;76;778;-65
2022/07/13 07:15:48;;;;;;;;;;;26.30;37.40;;;;;;1539296;76;743;-67
2022/07/13 07:17:50;;;;;;;;;;;26.30;37.30;;;;;;1555710;75;834;-65
2022/07/13 07:19:52;;;;;;;;;;;26.30;37.10;;;;;;1549651;73;233922;-71
2022/07/13 07:21:54;;;;;;;;;;;26.30;37.10;;;;;;1576178;74;1940;-72
2022/07/13 07:23:56;;;;;;;;;;;26.30;37.10;;;;;;1571934;74;732;-72
2022/07/13 07:25:58;;;;;;;;;;;26.30;37.10;;;;;;1568498;74;730;-72
2022/07/13 07:28:00;;;;;;;;;;;26.30;37.10;;;;;;1568828;74;714;-69
2022/07/13 07:30:02;;;;;;;;;;;26.40;36.90;;;;;;1574192;74;1205;-68
2022/07/13 07:32:05;;;;;;;;;;;26.40;36.80;;;;;;1584208;73;755;-69
2022/07/13 07:34:07;;;;;;;;;;;26.40;36.80;;;;;;1586733;75;729;-72
2022/07/13 07:36:09;;;;;;;;;;;26.40;36.70;;;;;;1586484;73;703;-71
2022/07/13 07:38:11;;;;;;;;;;;26.50;36.70;;;;;;1588942;74;793;-70
2022/07/13 07:40:13;;;;;;;;;;;26.50;36.60;;;;;;1591894;74;1117;-73
2022/07/13 07:42:15;;;;;;;;;;;26.50;36.60;;;;;;1586127;73;1940;-72
2022/07/13 07:44:18;;;;;;;;;;;26.50;36.50;;;;;;1584749;73;745;-68
2022/07/13 07:46:20;;;;;;;;;;;26.50;36.40;;;;;;1592479;73;771;-72
2022/07/13 07:48:22;;;;;;;;;;;26.60;36.30;;;;;;1592588;74;784;-69
2022/07/13 07:50:24;;;;;;;;;;;26.70;36.30;;;;;;1593576;73;1205;-71
2022/07/13 07:52:26;;;;;;;;;;;26.70;36.20;;;;;;1584528;74;697;-72
2022/07/13 07:54:28;;;;;;;;;;;26.60;36.20;;;;;;1591684;74;811;-71
2022/07/13 07:56:30;;;;;;;;;;;26.70;36.10;;;;;;1579461;73;749;-69
2022/07/13 07:58:31;;;;;;;;;;;26.70;36.00;;;;;;1585263;75;677;-70
2022/07/13 08:00:33;;;;;;;;;;;26.70;36.30;;;;;;1586961;73;1136;-69
2022/07/13 08:02:35;;;;;;;;;;;26.70;36.20;;;;;;1583078;73;1949;-71
2022/07/13 08:04:37;;;;;;;;;;;26.80;36.10;;;;;;1591360;73;775;-69
2022/07/13 08:06:39;;;;;;;;;;;26.80;36.00;;;;;;1587223;73;815;-69
2022/07/13 08:08:41;;;;;;;;;;;26.80;35.90;;;;;;1585294;75;737;-69
2022/07/13 08:10:43;;;;;;;;;;;26.80;35.80;;;;;;1585283;74;1134;-70
2022/07/13 08:12:45;;;;;;;;;;;26.80;35.80;;;;;;1588015;73;744;-70
2022/07/13 08:14:47;;;;;;;;;;;26.80;35.90;;;;;;1586664;73;767;-74
2022/07/13 08:16:49;;;;;;;;;;;26.90;35.80;;;;;;1588241;73;765;-73
2022/07/13 08:18:50;;;;;;;;;;;26.90;35.70;;;;;;1585658;74;751;-71
2022/07/13 08:20:52;;;;;;;;;;;26.80;35.70;;;;;;1593509;73;1131;-70
2022/07/13 08:22:54;;;;;;;;;;;26.90;35.70;;;;;;1591890;73;1937;-73
2022/07/13 08:24:56;;;;;;;;;;;26.80;35.60;;;;;;1592628;73;732;-73
2022/07/13 08:26:58;;;;;;;;;;;26.80;35.40;;;;;;1592044;73;678;-73
2022/07/13 08:29:00;;;;;;;;;;;26.90;35.50;;;;;;1592601;74;758;-72
2022/07/13 08:31:02;;;;;;;;;;;26.90;35.40;;;;;;1592697;73;1136;-73
2022/07/13 08:33:04;;;;;;;;;;;26.80;35.10;;;;;;1591385;73;731;-71
2022/07/13 08:39:47;;;;;;;;;;;26.80;35.00;;;;;;1588749;74;1642;-73
2022/07/13 08:41:49;;;;;;;;;;;26.80;34.90;;;;;;1589999;74;1909;-71
2022/07/13 08:43:51;;;;;;;;;;;26.70;35.00;;;;;;1585836;73;734;-72
2022/07/13 08:45:53;;;;;;;;;;;26.80;35.10;;;;;;1591724;74;1370;-72
2022/07/13 08:47:54;;;;;;;;;;;26.80;34.70;;;;;;1587246;73;788;-72
2022/07/13 08:50:01;;;;;;;;;;;26.70;34.80;;;;;;1592634;73;1143;-72
2022/07/13 08:52:03;;;;;;;;;;;26.80;34.50;;;;;;1590595;74;744;-71
2022/07/13 08:54:04;;;;;;;;;;;26.80;34.70;;;;;;1592093;74;736;-72
2022/07/13 08:56:06;;;;;;;;;;;26.80;34.50;;;;;;1587581;74;764;-68
2022/07/13 08:58:09;;;;;;;;;;;26.70;33.90;;;;;;1591335;73;829;-68
2022/07/13 09:00:11;;;;;;;;;;;26.80;34.70;;;;;;1591783;73;1120;-68
2022/07/13 09:02:13;;;;;;;;;;;26.80;34.70;;;;;;1590731;73;1901;-68
2022/07/13 09:04:15;;;;;;;;;;;26.80;34.70;;;;;;1593345;74;710;-69
2022/07/13 09:06:35;;;;;;;;;;;26.70;34.70;;;;;;1586621;73;685;-70
2022/07/13 09:08:43;;;;;;;;;;;26.80;33.70;;;;;;1591772;74;710;-69
2022/07/13 09:10:57;;;;;;;;;;;26.80;34.60;;;;;;1591241;74;1115;-68
2022/07/13 09:12:55;;;;;;;;;;;26.80;34.50;;;;;;1585747;73;1631;-69
2022/07/13 09:15:01;;;;;;;;;;;26.80;34.50;;;;;;1600187;73;789;-68
2022/07/13 09:17:02;;;;;;;;;;;26.70;33.00;;;;;;1590232;73;702;-68
2022/07/13 09:19:04;;;;;;;;;;;26.70;34.30;;;;;;1591930;74;786;-68
2022/07/13 09:21:06;;;;;;;;;;;26.70;34.20;;;;;;1580697;74;1131;-66
2022/07/13 09:23:09;;;;;;;;;;;26.70;34.50;;;;;;1588628;73;1905;-69
2022/07/13 09:25:11;;;;;;;;;;;26.70;34.40;;;;;;1592136;75;768;-69
2022/07/13 09:27:13;;;;;;;;;;;26.70;34.50;;;;;;1591338;74;782;-68
2022/07/13 09:29:15;;;;;;;;;;;26.70;34.40;;;;;;1592362;74;747;-68
2022/07/13 09:31:17;;;;;;;;;;;26.70;33.70;;;;;;1592585;73;1098;-69
2022/07/13 09:33:37;;;;;;;;;;;26.70;34.50;;;;;;1590374;74;775;-69
2022/07/13 09:35:42;;;;;;;;;;;26.70;34.40;;;;;;1581623;73;898;-68
2022/07/13 09:37:44;;;;;;;;;;;26.70;34.40;;;;;;1589325;73;711;-68
2022/07/13 09:39:56;;;;;;;;;;;26.70;34.40;;;;;;1584984;75;1165;-68
2022/07/13 09:41:58;;;;;;;;;;;26.70;34.40;;;;;;1592145;74;1573;-69
2022/07/13 09:46:22;;;;;;;;;;;26.70;34.20;;;;;;1572434;74;1674;-70
2022/07/13 09:48:24;;;;;;;;;;;26.70;32.80;;;;;;1579185;73;810;-70
2022/07/13 09:50:39;;;;;;;;;;;26.70;34.10;;;;;;1591675;75;1171;-69
2022/07/13 09:52:40;;;;;;;;;;;26.70;34.10;;;;;;1590957;74;764;-70
2022/07/13 09:54:44;;;;;;;;;;;26.70;33.50;;;;;;1593376;73;791;-68
2022/07/13 09:56:49;;;;;;;;;;;26.60;33.20;;;;;;1587452;73;826;-69
2022/07/13 09:58:51;;;;;;;;;;;26.60;33.80;;;;;;1587515;74;753;-70
2022/07/13 10:00:53;;;;;;;;;;;26.50;34.10;;;;;;1581811;74;1144;-69
2022/07/13 10:02:55;;;;;;;;;;;26.70;34.10;;;;;;1567994;74;1950;-70
2022/07/13 10:04:57;;;;;;;;;;;26.70;34.20;;;;;;1575678;73;731;-71
2022/07/13 10:07:00;;;;;;;;;;;26.70;34.00;;;;;;1591415;73;719;-70
2022/07/13 10:09:02;;;;;;;;;;;26.50;33.90;;;;;;1592189;73;754;-72
2022/07/13 10:11:04;;;;;;;;;;;26.60;33.20;;;;;;1578896;73;1127;-68
2022/07/13 10:13:06;;;;;;;;;;;26.60;34.00;;;;;;1583631;73;723;-70
2022/07/13 10:15:08;;;;;;;;;;;26.50;33.90;;;;;;1598194;73;777;-69
2022/07/13 10:17:11;;;;;;;;;;;26.50;33.50;;;;;;1584218;74;705;-71
2022/07/13 10:19:13;;;;;;;;;;;26.50;33.00;;;;;;1590246;73;711;-69
2022/07/13 10:21:19;;;;;;;;;;;26.50;33.70;;;;;;1583672;74;1085;-69
2022/07/13 10:23:32;;;;;;;;;;;26.50;33.70;;;;;;1588191;73;1964;-70
2022/07/13 10:25:43;;;;;;;;;;;26.50;33.60;;;;;;1593143;73;1769;-69
2022/07/13 10:27:45;;;;;;;;;;;26.50;33.20;;;;;;1580723;73;1084;-70
2022/07/13 10:29:48;;;;;;;;;;;26.50;33.40;;;;;;1592881;74;1158;-70
2022/07/13 10:31:51;;;;;;;;;;;26.50;33.80;;;;;;1586591;74;778;-69
2022/07/13 10:33:53;;;;;;;;;;;26.50;33.60;;;;;;1596210;73;1178;-68
2022/07/13 10:35:55;;;;;;;;;;;26.50;33.80;;;;;;1587669;73;703;-69
2022/07/13 10:37:59;;;;;;;;;;;26.50;33.60;;;;;;1584144;73;1548;-70
2022/07/13 10:40:16;;;;;;;;;;;26.50;33.60;;;;;;1587781;73;1168;-68
2022/07/13 10:42:18;;;;;;;;;;;26.50;33.60;;;;;;1590906;74;833;-67
2022/07/13 10:44:31;;;;;;;;;;;26.50;33.00;;;;;;1592725;73;1883;-70
2022/07/13 10:46:37;;;;;;;;;;;26.40;33.60;;;;;;1595945;73;1819;-71
2022/07/13 10:48:40;;;;;;;;;;;26.50;33.20;;;;;;1591125;74;1218;-69
2022/07/13 10:50:48;;;;;;;;;;;26.40;32.80;;;;;;1592076;73;1096;-68
2022/07/13 10:52:50;;;;;;;;;;;26.40;32.30;;;;;;1588069;73;775;-69
2022/07/13 10:55:13;;;;;;;;;;;26.50;32.90;;;;;;1590803;74;780;-70
2022/07/13 10:57:16;;;;;;;;;;;26.40;32.70;;;;;;1591139;74;555;-67
2022/07/13 10:59:28;;;;;;;;;;;26.40;32.80;;;;;;1583559;74;737;-69
2022/07/13 11:01:38;;;;;;;;;;;26.30;32.20;;;;;;1579115;74;1121;-68
2022/07/13 11:03:44;;;;;;;;;;;26.40;30.30;;;;;;1585640;74;1917;-68
2022/07/13 11:05:45;;;;;;;;;;;26.30;32.10;;;;;;1559068;74;1141;-67
2022/07/13 11:07:51;;;;;;;;;;;26.30;31.90;;;;;;1588015;74;2008;-67
2022/07/13 11:09:55;;;;;;;;;;;26.40;32.50;;;;;;1587772;74;1158;-67
2022/07/13 11:11:57;;;;;;;;;;;26.40;32.40;;;;;;1578301;73;1661;-68
2022/07/13 11:13:59;;;;;;;;;;;26.40;32.10;;;;;;1592671;73;732;-68
2022/07/13 11:16:01;;;;;;;;;;;26.40;31.00;;;;;;1569876;73;728;-68
2022/07/13 11:18:20;;;;;;;;;;;26.30;31.10;;;;;;1591356;74;785;-67
2022/07/13 11:20:22;;;;;;;;;;;26.30;30.90;;;;;;1586399;73;1127;-67
2022/07/13 11:22:26;;;;;;;;;;;26.20;31.80;;;;;;1591934;74;820;-67
2022/07/13 11:26:52;;;;;;;;;;;26.30;31.40;;;;;;1587867;73;1626;-67
2022/07/13 11:29:12;;;;;;;;;;;26.20;31.50;;;;;;1589253;75;771;-69
2022/07/13 11:31:14;;;;;;;;;;;26.30;32.40;;;;;;1592782;74;1139;-67
2022/07/13 11:33:16;;;;;;;;;;;26.30;32.30;;;;;;1593652;73;751;-68
2022/07/13 11:35:18;;;;;;;;;;;26.40;32.10;;;;;;1584133;73;1707;-67
2022/07/13 11:37:23;;;;;;;;;;;26.30;32.10;;;;;;1592051;73;723;-67
2022/07/13 11:39:26;;;;;;;;;;;26.40;31.90;;;;;;1592540;74;796;-68
2022/07/13 11:41:28;;;;;;;;;;;26.40;32.00;;;;;;1590964;74;1152;-68
2022/07/13 11:43:30;;;;;;;;;;;26.40;31.90;;;;;;1591447;73;1937;-67
2022/07/13 11:45:32;;;;;;;;;;;26.40;32.00;;;;;;1584855;73;648;-68
2022/07/13 11:47:34;;;;;;;;;;;26.40;32.10;;;;;;1583527;73;808;-67
2022/07/13 11:49:50;;;;;;;;;;;26.40;32.20;;;;;;1588092;73;786;-63
2022/07/13 11:51:52;;;;;;;;;;;26.50;32.10;;;;;;1588900;73;1059;-70
2022/07/13 11:53:54;;;;;;;;;;;26.40;32.10;;;;;;1590159;74;820;-69
2022/07/13 11:55:57;;;;;;;;;;;26.40;32.00;;;;;;1582948;73;773;-68
2022/07/13 11:57:59;;;;;;;;;;;26.40;31.30;;;;;;1588715;73;811;-69
2022/07/13 12:00:01;;;;;;;;;;;26.30;30.60;;;;;;1588482;74;1120;-68
2022/07/13 12:02:08;;;;;;;;;;;26.30;31.50;;;;;;1589280;73;673;-68
2022/07/13 12:04:10;;;;;;;;;;;26.30;31.90;;;;;;1592033;73;1926;-68
2022/07/13 12:06:11;;;;;;;;;;;26.30;31.90;;;;;;1584382;73;594;-67
2022/07/13 12:08:13;;;;;;;;;;;26.30;32.00;;;;;;1590275;74;658;-68
2022/07/13 12:10:15;;;;;;;;;;;26.30;31.80;;;;;;1585747;74;1184;-69
2022/07/13 12:12:28;;;;;;;;;;;26.30;31.20;;;;;;1586022;73;712;-68
2022/07/13 12:14:29;;;;;;;;;;;26.20;31.80;;;;;;1587252;73;673;-69
2022/07/13 12:16:31;;;;;;;;;;;26.30;31.90;;;;;;1590549;74;865;-68
2022/07/13 12:18:51;;;;;;;;;;;26.30;32.00;;;;;;1590398;74;525;-68
2022/07/13 12:20:53;;;;;;;;;;;26.30;31.50;;;;;;1588311;74;1172;-68